sensor_id;sensor_type;location;lat;lon;timestamp;temperature;humidity
21090;DHT22;10703;51.020;6.128;2023-06-10T00:00:47;18.60;99.90
21090;DHT22;10703;51.020;6.128;2023-06-10T00:03:14;18.60;99.90
21090;DHT22;10703;51.020;6.128;2023-06-10T00:05:41;18.50;99.90
21090;DHT22;10703;51.020;6.128;2023-06-10T00:08:07;18.50;99.90
21090;DHT22;10703;51.020;6.128;2023-06-10T00:10:35;18.70;99.90
21090;DHT22;10703;51.020;6.128;2023-06-10T00:13:04;18.70;99.90
21090;DHT22;10703;51.020;6.128;2023-06-10T00:15:31;18.80;99.90
21090;DHT22;10703;51.020;6.128;2023-06-10T00:17:57;18.70;99.90
21090;DHT22;10703;51.020;6.128;2023-06-10T00:20:24;18.70;99.90
21090;DHT22;10703;51.020;6.128;2023-06-10T00:22:51;18.60;99.90
21090;DHT22;10703;51.020;6.128;2023-06-10T00:25:18;18.40;99.90
21090;DHT22;10703;51.020;6.128;2023-06-10T00:27:45;18.30;99.90
21090;DHT22;10703;51.020;6.128;2023-06-10T00:30:12;18.10;99.90
21090;DHT22;10703;51.020;6.128;2023-06-10T00:32:38;18.00;99.90
21090;DHT22;10703;51.020;6.128;2023-06-10T00:35:06;18.00;99.90
21090;DHT22;10703;51.020;6.128;2023-06-10T00:37:33;18.00;99.90
21090;DHT22;10703;51.020;6.128;2023-06-10T00:40:04;17.90;99.90
21090;DHT22;10703;51.020;6.128;2023-06-10T00:42:31;17.80;99.90
21090;DHT22;10703;51.020;6.128;2023-06-10T00:44:58;17.70;99.90
21090;DHT22;10703;51.020;6.128;2023-06-10T00:47:25;17.70;99.90
21090;DHT22;10703;51.020;6.128;2023-06-10T00:49:53;17.60;99.90
21090;DHT22;10703;51.020;6.128;2023-06-10T00:52:21;17.60;99.90
21090;DHT22;10703;51.020;6.128;2023-06-10T00:54:48;17.50;99.90
21090;DHT22;10703;51.020;6.128;2023-06-10T00:57:15;17.60;99.90
21090;DHT22;10703;51.020;6.128;2023-06-10T00:59:46;17.60;99.90
21090;DHT22;10703;51.020;6.128;2023-06-10T01:02:14;17.60;99.90
21090;DHT22;10703;51.020;6.128;2023-06-10T01:04:41;17.70;99.90
21090;DHT22;10703;51.020;6.128;2023-06-10T01:07:31;17.70;99.90
21090;DHT22;10703;51.020;6.128;2023-06-10T01:10:15;17.70;99.90
21090;DHT22;10703;51.020;6.128;2023-06-10T01:12:59;17.70;99.90
21090;DHT22;10703;51.020;6.128;2023-06-10T01:15:30;17.70;99.90
21090;DHT22;10703;51.020;6.128;2023-06-10T01:18:07;17.80;99.90
21090;DHT22;10703;51.020;6.128;2023-06-10T01:20:42;17.90;99.90
21090;DHT22;10703;51.020;6.128;2023-06-10T01:23:10;18.00;99.90
21090;DHT22;10703;51.020;6.128;2023-06-10T01:25:39;18.00;99.90
21090;DHT22;10703;51.020;6.128;2023-06-10T01:28:14;17.90;99.90
21090;DHT22;10703;51.020;6.128;2023-06-10T01:31:12;17.90;99.90
21090;DHT22;10703;51.020;6.128;2023-06-10T01:33:38;17.90;99.90
21090;DHT22;10703;51.020;6.128;2023-06-10T01:36:06;17.70;99.90
21090;DHT22;10703;51.020;6.128;2023-06-10T01:38:36;17.60;99.90
21090;DHT22;10703;51.020;6.128;2023-06-10T01:41:06;17.50;99.90
21090;DHT22;10703;51.020;6.128;2023-06-10T01:43:34;17.30;99.90
21090;DHT22;10703;51.020;6.128;2023-06-10T01:46:01;17.30;99.90
21090;DHT22;10703;51.020;6.128;2023-06-10T01:48:27;17.40;99.90
21090;DHT22;10703;51.020;6.128;2023-06-10T01:50:54;17.30;99.90
21090;DHT22;10703;51.020;6.128;2023-06-10T01:53:22;17.30;99.90
21090;DHT22;10703;51.020;6.128;2023-06-10T01:55:49;17.10;99.90
21090;DHT22;10703;51.020;6.128;2023-06-10T01:58:16;17.10;99.90
21090;DHT22;10703;51.020;6.128;2023-06-10T02:00:43;17.10;99.90
21090;DHT22;10703;51.020;6.128;2023-06-10T02:03:09;17.10;99.90
21090;DHT22;10703;51.020;6.128;2023-06-10T02:05:37;17.00;99.90
21090;DHT22;10703;51.020;6.128;2023-06-10T02:08:04;17.00;99.90
21090;DHT22;10703;51.020;6.128;2023-06-10T02:10:30;17.00;99.90
21090;DHT22;10703;51.020;6.128;2023-06-10T02:12:57;17.00;99.90
21090;DHT22;10703;51.020;6.128;2023-06-10T02:15:24;17.00;99.90
21090;DHT22;10703;51.020;6.128;2023-06-10T02:17:51;16.90;99.90
21090;DHT22;10703;51.020;6.128;2023-06-10T02:20:18;16.80;99.90
21090;DHT22;10703;51.020;6.128;2023-06-10T02:22:45;16.70;99.90
21090;DHT22;10703;51.020;6.128;2023-06-10T02:25:12;16.80;99.90
21090;DHT22;10703;51.020;6.128;2023-06-10T02:27:38;16.70;99.90
21090;DHT22;10703;51.020;6.128;2023-06-10T02:30:05;16.60;99.90
21090;DHT22;10703;51.020;6.128;2023-06-10T02:32:32;16.60;99.90
21090;DHT22;10703;51.020;6.128;2023-06-10T02:34:59;16.50;99.90
21090;DHT22;10703;51.020;6.128;2023-06-10T02:37:26;16.50;99.90
21090;DHT22;10703;51.020;6.128;2023-06-10T02:39:53;16.50;99.90
21090;DHT22;10703;51.020;6.128;2023-06-10T02:42:19;16.50;99.90
21090;DHT22;10703;51.020;6.128;2023-06-10T02:44:46;16.50;99.90
21090;DHT22;10703;51.020;6.128;2023-06-10T02:47:13;16.50;99.90
21090;DHT22;10703;51.020;6.128;2023-06-10T02:49:39;16.50;99.90
21090;DHT22;10703;51.020;6.128;2023-06-10T02:52:07;16.50;99.90
21090;DHT22;10703;51.020;6.128;2023-06-10T02:54:34;16.60;99.90
21090;DHT22;10703;51.020;6.128;2023-06-10T02:57:02;16.70;99.90
21090;DHT22;10703;51.020;6.128;2023-06-10T02:59:29;16.70;99.90
21090;DHT22;10703;51.020;6.128;2023-06-10T03:01:55;16.70;99.90
21090;DHT22;10703;51.020;6.128;2023-06-10T03:04:22;16.70;99.90
21090;DHT22;10703;51.020;6.128;2023-06-10T03:06:50;16.60;99.90
21090;DHT22;10703;51.020;6.128;2023-06-10T03:09:16;16.60;99.90
21090;DHT22;10703;51.020;6.128;2023-06-10T03:11:43;16.50;99.90
21090;DHT22;10703;51.020;6.128;2023-06-10T03:14:09;16.50;99.90
21090;DHT22;10703;51.020;6.128;2023-06-10T03:16:36;16.50;99.90
21090;DHT22;10703;51.020;6.128;2023-06-10T03:19:07;16.40;99.90
21090;DHT22;10703;51.020;6.128;2023-06-10T03:21:37;16.40;99.90
21090;DHT22;10703;51.020;6.128;2023-06-10T03:24:04;16.50;99.90
21090;DHT22;10703;51.020;6.128;2023-06-10T03:26:31;16.40;99.90
21090;DHT22;10703;51.020;6.128;2023-06-10T03:28:58;16.40;99.90
21090;DHT22;10703;51.020;6.128;2023-06-10T03:31:25;16.40;99.90
21090;DHT22;10703;51.020;6.128;2023-06-10T03:33:51;16.40;99.90
21090;DHT22;10703;51.020;6.128;2023-06-10T03:36:18;16.50;99.90
21090;DHT22;10703;51.020;6.128;2023-06-10T03:38:45;16.50;99.90
21090;DHT22;10703;51.020;6.128;2023-06-10T03:41:11;16.50;99.90
21090;DHT22;10703;51.020;6.128;2023-06-10T03:43:38;16.50;99.90
21090;DHT22;10703;51.020;6.128;2023-06-10T03:46:06;16.50;99.90
21090;DHT22;10703;51.020;6.128;2023-06-10T03:48:33;16.40;99.90
21090;DHT22;10703;51.020;6.128;2023-06-10T03:51:00;16.50;99.90
21090;DHT22;10703;51.020;6.128;2023-06-10T03:53:27;16.60;99.90
21090;DHT22;10703;51.020;6.128;2023-06-10T03:55:54;16.60;99.90
21090;DHT22;10703;51.020;6.128;2023-06-10T03:58:20;16.70;99.90
21090;DHT22;10703;51.020;6.128;2023-06-10T04:00:47;16.70;99.90
21090;DHT22;10703;51.020;6.128;2023-06-10T04:03:15;16.90;99.90
21090;DHT22;10703;51.020;6.128;2023-06-10T04:05:42;16.90;99.90
21090;DHT22;10703;51.020;6.128;2023-06-10T04:08:09;17.00;99.90
21090;DHT22;10703;51.020;6.128;2023-06-10T04:10:36;17.00;99.90
21090;DHT22;10703;51.020;6.128;2023-06-10T04:13:03;17.00;99.90
21090;DHT22;10703;51.020;6.128;2023-06-10T04:15:30;17.00;99.90
21090;DHT22;10703;51.020;6.128;2023-06-10T04:17:59;17.00;99.90
21090;DHT22;10703;51.020;6.128;2023-06-10T04:20:27;17.00;99.90
21090;DHT22;10703;51.020;6.128;2023-06-10T04:22:53;17.10;99.90
21090;DHT22;10703;51.020;6.128;2023-06-10T04:25:20;17.10;99.90
21090;DHT22;10703;51.020;6.128;2023-06-10T04:27:47;17.20;99.90
21090;DHT22;10703;51.020;6.128;2023-06-10T04:30:14;17.30;99.90
21090;DHT22;10703;51.020;6.128;2023-06-10T04:32:41;17.40;99.90
21090;DHT22;10703;51.020;6.128;2023-06-10T04:35:11;17.40;99.90
21090;DHT22;10703;51.020;6.128;2023-06-10T04:37:39;17.50;99.90
21090;DHT22;10703;51.020;6.128;2023-06-10T04:40:06;17.60;99.90
21090;DHT22;10703;51.020;6.128;2023-06-10T04:42:34;17.70;99.90
21090;DHT22;10703;51.020;6.128;2023-06-10T04:45:00;17.70;99.90
21090;DHT22;10703;51.020;6.128;2023-06-10T04:47:27;17.70;99.90
21090;DHT22;10703;51.020;6.128;2023-06-10T04:49:54;17.70;99.90
21090;DHT22;10703;51.020;6.128;2023-06-10T04:52:21;17.90;99.90
21090;DHT22;10703;51.020;6.128;2023-06-10T04:54:48;18.00;99.90
21090;DHT22;10703;51.020;6.128;2023-06-10T04:57:15;18.10;99.90
21090;DHT22;10703;51.020;6.128;2023-06-10T04:59:41;18.10;99.90
21090;DHT22;10703;51.020;6.128;2023-06-10T05:02:08;18.20;99.90
21090;DHT22;10703;51.020;6.128;2023-06-10T05:04:34;18.30;99.90
21090;DHT22;10703;51.020;6.128;2023-06-10T05:07:01;18.40;99.90
21090;DHT22;10703;51.020;6.128;2023-06-10T05:09:27;18.50;99.90
21090;DHT22;10703;51.020;6.128;2023-06-10T05:11:54;18.50;99.90
21090;DHT22;10703;51.020;6.128;2023-06-10T05:14:21;18.60;99.90
21090;DHT22;10703;51.020;6.128;2023-06-10T05:16:48;18.80;99.90
21090;DHT22;10703;51.020;6.128;2023-06-10T05:19:15;18.90;99.90
21090;DHT22;10703;51.020;6.128;2023-06-10T05:21:45;18.90;99.90
21090;DHT22;10703;51.020;6.128;2023-06-10T05:24:12;19.00;99.90
21090;DHT22;10703;51.020;6.128;2023-06-10T05:26:38;19.10;99.90
21090;DHT22;10703;51.020;6.128;2023-06-10T05:29:05;19.20;99.90
21090;DHT22;10703;51.020;6.128;2023-06-10T05:31:32;19.40;99.90
21090;DHT22;10703;51.020;6.128;2023-06-10T05:33:59;19.40;99.90
21090;DHT22;10703;51.020;6.128;2023-06-10T05:36:26;19.40;99.90
21090;DHT22;10703;51.020;6.128;2023-06-10T05:38:53;19.70;99.90
21090;DHT22;10703;51.020;6.128;2023-06-10T05:41:19;19.80;99.90
21090;DHT22;10703;51.020;6.128;2023-06-10T05:43:47;19.80;99.90
21090;DHT22;10703;51.020;6.128;2023-06-10T05:46:13;19.90;99.90
21090;DHT22;10703;51.020;6.128;2023-06-10T05:48:40;20.00;99.90
21090;DHT22;10703;51.020;6.128;2023-06-10T05:51:07;20.10;99.90
21090;DHT22;10703;51.020;6.128;2023-06-10T05:53:33;20.20;99.90
21090;DHT22;10703;51.020;6.128;2023-06-10T05:56:00;20.50;99.90
21090;DHT22;10703;51.020;6.128;2023-06-10T05:58:27;20.40;99.90
21090;DHT22;10703;51.020;6.128;2023-06-10T06:00:53;20.50;99.90
21090;DHT22;10703;51.020;6.128;2023-06-10T06:03:20;20.70;99.90
21090;DHT22;10703;51.020;6.128;2023-06-10T06:05:47;20.80;99.90
21090;DHT22;10703;51.020;6.128;2023-06-10T06:08:13;21.00;99.90
21090;DHT22;10703;51.020;6.128;2023-06-10T06:10:46;21.10;99.90
21090;DHT22;10703;51.020;6.128;2023-06-10T06:13:14;21.20;99.90
21090;DHT22;10703;51.020;6.128;2023-06-10T06:15:41;21.50;99.90
21090;DHT22;10703;51.020;6.128;2023-06-10T06:18:07;21.50;99.90
21090;DHT22;10703;51.020;6.128;2023-06-10T06:20:34;21.50;99.90
21090;DHT22;10703;51.020;6.128;2023-06-10T06:23:01;21.50;99.90
21090;DHT22;10703;51.020;6.128;2023-06-10T06:25:27;21.60;99.90
21090;DHT22;10703;51.020;6.128;2023-06-10T06:27:54;21.80;99.90
21090;DHT22;10703;51.020;6.128;2023-06-10T06:30:21;21.80;99.90
21090;DHT22;10703;51.020;6.128;2023-06-10T06:32:47;22.00;99.90
21090;DHT22;10703;51.020;6.128;2023-06-10T06:35:14;22.10;99.90
21090;DHT22;10703;51.020;6.128;2023-06-10T06:37:41;22.30;99.90
21090;DHT22;10703;51.020;6.128;2023-06-10T06:40:08;22.70;99.90
21090;DHT22;10703;51.020;6.128;2023-06-10T06:42:34;23.00;99.90
21090;DHT22;10703;51.020;6.128;2023-06-10T06:45:01;23.50;99.90
21090;DHT22;10703;51.020;6.128;2023-06-10T06:47:28;23.80;99.90
21090;DHT22;10703;51.020;6.128;2023-06-10T06:49:54;24.00;99.90
21090;DHT22;10703;51.020;6.128;2023-06-10T06:52:21;24.10;99.90
21090;DHT22;10703;51.020;6.128;2023-06-10T06:54:48;24.10;99.90
21090;DHT22;10703;51.020;6.128;2023-06-10T06:57:15;24.40;99.90
21090;DHT22;10703;51.020;6.128;2023-06-10T06:59:42;24.90;99.90
21090;DHT22;10703;51.020;6.128;2023-06-10T07:02:09;24.90;99.90
21090;DHT22;10703;51.020;6.128;2023-06-10T07:04:35;25.20;99.90
21090;DHT22;10703;51.020;6.128;2023-06-10T07:07:02;25.20;99.90
21090;DHT22;10703;51.020;6.128;2023-06-10T07:09:29;25.10;99.90
21090;DHT22;10703;51.020;6.128;2023-06-10T07:11:56;25.20;99.90
21090;DHT22;10703;51.020;6.128;2023-06-10T07:14:22;26.10;99.90
21090;DHT22;10703;51.020;6.128;2023-06-10T07:16:49;25.70;99.90
21090;DHT22;10703;51.020;6.128;2023-06-10T07:19:16;25.80;99.90
21090;DHT22;10703;51.020;6.128;2023-06-10T07:21:42;25.90;99.90
21090;DHT22;10703;51.020;6.128;2023-06-10T07:24:09;25.90;99.90
21090;DHT22;10703;51.020;6.128;2023-06-10T07:26:36;27.20;99.90
21090;DHT22;10703;51.020;6.128;2023-06-10T07:29:02;27.00;99.10
21090;DHT22;10703;51.020;6.128;2023-06-10T07:31:29;26.90;99.00
21090;DHT22;10703;51.020;6.128;2023-06-10T07:33:56;27.10;99.10
21090;DHT22;10703;51.020;6.128;2023-06-10T07:36:23;27.10;98.10
21090;DHT22;10703;51.020;6.128;2023-06-10T07:38:50;27.30;98.40
21090;DHT22;10703;51.020;6.128;2023-06-10T07:41:16;27.40;99.10
21090;DHT22;10703;51.020;6.128;2023-06-10T07:43:44;27.30;97.50
21090;DHT22;10703;51.020;6.128;2023-06-10T07:46:11;27.40;98.10
21090;DHT22;10703;51.020;6.128;2023-06-10T07:48:37;27.60;97.90
21090;DHT22;10703;51.020;6.128;2023-06-10T07:51:04;27.60;96.90
21090;DHT22;10703;51.020;6.128;2023-06-10T07:53:31;28.40;94.90
21090;DHT22;10703;51.020;6.128;2023-06-10T07:55:57;28.30;94.60
21090;DHT22;10703;51.020;6.128;2023-06-10T07:58:24;28.90;93.80
21090;DHT22;10703;51.020;6.128;2023-06-10T08:00:50;29.50;93.60
21090;DHT22;10703;51.020;6.128;2023-06-10T08:03:17;29.10;94.30
21090;DHT22;10703;51.020;6.128;2023-06-10T08:05:44;28.60;94.80
21090;DHT22;10703;51.020;6.128;2023-06-10T08:08:10;28.80;94.90
21090;DHT22;10703;51.020;6.128;2023-06-10T08:10:37;28.60;93.90
21090;DHT22;10703;51.020;6.128;2023-06-10T08:13:04;29.70;92.60
21090;DHT22;10703;51.020;6.128;2023-06-10T08:15:30;29.30;92.40
21090;DHT22;10703;51.020;6.128;2023-06-10T08:17:57;28.90;92.50
21090;DHT22;10703;51.020;6.128;2023-06-10T08:20:24;29.00;92.00
21090;DHT22;10703;51.020;6.128;2023-06-10T08:22:51;29.10;91.70
21090;DHT22;10703;51.020;6.128;2023-06-10T08:25:17;28.90;91.60
21090;DHT22;10703;51.020;6.128;2023-06-10T08:27:44;28.50;91.60
21090;DHT22;10703;51.020;6.128;2023-06-10T08:30:11;28.80;91.90
21090;DHT22;10703;51.020;6.128;2023-06-10T08:32:39;29.00;91.60
21090;DHT22;10703;51.020;6.128;2023-06-10T08:35:06;29.50;91.50
21090;DHT22;10703;51.020;6.128;2023-06-10T08:37:33;30.10;91.30
21090;DHT22;10703;51.020;6.128;2023-06-10T08:40:00;30.20;91.00
21090;DHT22;10703;51.020;6.128;2023-06-10T08:42:39;30.00;90.70
21090;DHT22;10703;51.020;6.128;2023-06-10T08:45:13;30.20;91.10
21090;DHT22;10703;51.020;6.128;2023-06-10T08:47:45;30.40;91.00
21090;DHT22;10703;51.020;6.128;2023-06-10T08:50:12;30.50;90.60
21090;DHT22;10703;51.020;6.128;2023-06-10T08:52:42;30.90;90.30
21090;DHT22;10703;51.020;6.128;2023-06-10T08:55:21;31.50;89.70
21090;DHT22;10703;51.020;6.128;2023-06-10T08:57:58;31.80;88.10
21090;DHT22;10703;51.020;6.128;2023-06-10T09:00:26;31.50;87.70
21090;DHT22;10703;51.020;6.128;2023-06-10T09:02:55;31.70;89.60
21090;DHT22;10703;51.020;6.128;2023-06-10T09:05:22;31.50;88.20
21090;DHT22;10703;51.020;6.128;2023-06-10T09:07:51;30.90;89.20
21090;DHT22;10703;51.020;6.128;2023-06-10T09:10:18;30.90;89.70
21090;DHT22;10703;51.020;6.128;2023-06-10T09:12:45;31.10;89.70
21090;DHT22;10703;51.020;6.128;2023-06-10T09:15:11;31.20;88.80
21090;DHT22;10703;51.020;6.128;2023-06-10T09:17:38;31.00;88.70
21090;DHT22;10703;51.020;6.128;2023-06-10T09:20:08;31.50;88.20
21090;DHT22;10703;51.020;6.128;2023-06-10T09:22:36;31.80;87.10
21090;DHT22;10703;51.020;6.128;2023-06-10T09:27:31;31.90;87.60
21090;DHT22;10703;51.020;6.128;2023-06-10T09:29:59;32.60;86.90
21090;DHT22;10703;51.020;6.128;2023-06-10T09:32:26;33.20;85.90
21090;DHT22;10703;51.020;6.128;2023-06-10T09:34:54;33.30;85.30
21090;DHT22;10703;51.020;6.128;2023-06-10T09:37:24;33.70;85.00
21090;DHT22;10703;51.020;6.128;2023-06-10T09:40:07;34.40;84.30
21090;DHT22;10703;51.020;6.128;2023-06-10T09:42:38;34.20;83.30
21090;DHT22;10703;51.020;6.128;2023-06-10T09:45:06;33.90;82.50
21090;DHT22;10703;51.020;6.128;2023-06-10T09:47:33;33.70;82.50
21090;DHT22;10703;51.020;6.128;2023-06-10T09:50:00;33.90;82.30
21090;DHT22;10703;51.020;6.128;2023-06-10T09:52:29;33.80;83.00
21090;DHT22;10703;51.020;6.128;2023-06-10T09:55:02;33.60;84.60
21090;DHT22;10703;51.020;6.128;2023-06-10T09:57:32;34.00;84.30
21090;DHT22;10703;51.020;6.128;2023-06-10T10:00:10;34.60;83.70
21090;DHT22;10703;51.020;6.128;2023-06-10T10:02:52;35.20;80.90
21090;DHT22;10703;51.020;6.128;2023-06-10T10:05:21;35.10;81.60
21090;DHT22;10703;51.020;6.128;2023-06-10T10:07:49;35.80;81.70
21090;DHT22;10703;51.020;6.128;2023-06-10T10:10:19;36.00;81.20
21090;DHT22;10703;51.020;6.128;2023-06-10T10:12:47;36.40;81.30
21090;DHT22;10703;51.020;6.128;2023-06-10T10:15:16;37.00;81.10
21090;DHT22;10703;51.020;6.128;2023-06-10T10:18:09;37.60;79.40
21090;DHT22;10703;51.020;6.128;2023-06-10T10:20:43;38.00;79.70
21090;DHT22;10703;51.020;6.128;2023-06-10T10:23:14;37.60;79.10
21090;DHT22;10703;51.020;6.128;2023-06-10T10:25:49;37.70;78.90
21090;DHT22;10703;51.020;6.128;2023-06-10T10:28:20;38.00;77.90
21090;DHT22;10703;51.020;6.128;2023-06-10T10:30:53;38.00;77.80
21090;DHT22;10703;51.020;6.128;2023-06-10T10:33:28;37.70;77.30
21090;DHT22;10703;51.020;6.128;2023-06-10T10:35:58;37.20;77.10
21090;DHT22;10703;51.020;6.128;2023-06-10T10:38:25;37.70;78.00
21090;DHT22;10703;51.020;6.128;2023-06-10T10:40:52;37.80;77.20
21090;DHT22;10703;51.020;6.128;2023-06-10T10:43:19;38.00;76.70
21090;DHT22;10703;51.020;6.128;2023-06-10T10:45:46;37.60;75.40
21090;DHT22;10703;51.020;6.128;2023-06-10T10:48:24;37.50;76.90
21090;DHT22;10703;51.020;6.128;2023-06-10T10:50:58;37.60;74.70
21090;DHT22;10703;51.020;6.128;2023-06-10T10:53:25;37.40;74.90
21090;DHT22;10703;51.020;6.128;2023-06-10T10:56:05;37.90;75.10
21090;DHT22;10703;51.020;6.128;2023-06-10T10:58:32;38.30;75.40
21090;DHT22;10703;51.020;6.128;2023-06-10T11:00:59;38.80;74.70
21090;DHT22;10703;51.020;6.128;2023-06-10T11:03:29;38.10;74.30
21090;DHT22;10703;51.020;6.128;2023-06-10T11:05:59;38.40;74.30
21090;DHT22;10703;51.020;6.128;2023-06-10T11:10:59;38.30;74.00
21090;DHT22;10703;51.020;6.128;2023-06-10T11:13:27;38.00;74.40
21090;DHT22;10703;51.020;6.128;2023-06-10T11:15:57;36.70;72.70
21090;DHT22;10703;51.020;6.128;2023-06-10T11:18:29;36.40;74.10
21090;DHT22;10703;51.020;6.128;2023-06-10T11:21:00;36.90;73.20
21090;DHT22;10703;51.020;6.128;2023-06-10T11:34:02;37.00;70.60
21090;DHT22;10703;51.020;6.128;2023-06-10T11:36:31;36.30;71.30
21090;DHT22;10703;51.020;6.128;2023-06-10T11:39:00;36.60;71.60
21090;DHT22;10703;51.020;6.128;2023-06-10T11:41:28;36.80;72.30
21090;DHT22;10703;51.020;6.128;2023-06-10T11:44:01;37.10;71.60
21090;DHT22;10703;51.020;6.128;2023-06-10T11:46:28;36.90;72.00
21090;DHT22;10703;51.020;6.128;2023-06-10T11:48:56;37.20;71.70
21090;DHT22;10703;51.020;6.128;2023-06-10T11:51:28;37.50;70.30
21090;DHT22;10703;51.020;6.128;2023-06-10T11:53:55;37.10;70.10
21090;DHT22;10703;51.020;6.128;2023-06-10T11:56:23;36.70;70.90
21090;DHT22;10703;51.020;6.128;2023-06-10T11:59:04;36.30;70.50
21090;DHT22;10703;51.020;6.128;2023-06-10T12:01:33;36.00;69.60
21090;DHT22;10703;51.020;6.128;2023-06-10T12:04:11;36.60;70.00
21090;DHT22;10703;51.020;6.128;2023-06-10T12:06:44;37.00;69.40
21090;DHT22;10703;51.020;6.128;2023-06-10T12:09:30;37.10;66.80
21090;DHT22;10703;51.020;6.128;2023-06-10T12:12:03;37.70;67.10
21090;DHT22;10703;51.020;6.128;2023-06-10T12:14:59;38.80;67.60
21090;DHT22;10703;51.020;6.128;2023-06-10T12:20:27;38.00;67.90
21090;DHT22;10703;51.020;6.128;2023-06-10T12:22:54;36.90;66.20
21090;DHT22;10703;51.020;6.128;2023-06-10T12:25:26;36.10;66.50
21090;DHT22;10703;51.020;6.128;2023-06-10T12:27:55;36.50;66.60
21090;DHT22;10703;51.020;6.128;2023-06-10T12:30:23;36.70;67.10
21090;DHT22;10703;51.020;6.128;2023-06-10T12:32:51;36.80;66.00
21090;DHT22;10703;51.020;6.128;2023-06-10T12:35:23;37.30;65.80
21090;DHT22;10703;51.020;6.128;2023-06-10T12:38:09;37.60;65.30
21090;DHT22;10703;51.020;6.128;2023-06-10T12:40:39;37.10;66.20
21090;DHT22;10703;51.020;6.128;2023-06-10T12:43:07;37.50;66.40
21090;DHT22;10703;51.020;6.128;2023-06-10T12:45:38;39.10;65.40
21090;DHT22;10703;51.020;6.128;2023-06-10T12:48:19;40.20;65.80
21090;DHT22;10703;51.020;6.128;2023-06-10T12:50:58;39.10;66.70
21090;DHT22;10703;51.020;6.128;2023-06-10T12:53:25;38.40;67.70
21090;DHT22;10703;51.020;6.128;2023-06-10T12:55:54;38.60;67.60
21090;DHT22;10703;51.020;6.128;2023-06-10T12:58:22;38.50;67.70
21090;DHT22;10703;51.020;6.128;2023-06-10T13:00:49;38.00;67.60
21090;DHT22;10703;51.020;6.128;2023-06-10T13:03:19;37.90;67.80
21090;DHT22;10703;51.020;6.128;2023-06-10T13:05:45;37.30;68.00
21090;DHT22;10703;51.020;6.128;2023-06-10T13:08:12;37.50;68.50
21090;DHT22;10703;51.020;6.128;2023-06-10T13:10:39;37.80;68.10
21090;DHT22;10703;51.020;6.128;2023-06-10T13:13:05;38.00;67.60
21090;DHT22;10703;51.020;6.128;2023-06-10T13:15:34;38.50;66.50
21090;DHT22;10703;51.020;6.128;2023-06-10T13:18:08;38.50;66.30
21090;DHT22;10703;51.020;6.128;2023-06-10T13:20:35;38.70;66.10
21090;DHT22;10703;51.020;6.128;2023-06-10T13:23:02;39.50;64.50
21090;DHT22;10703;51.020;6.128;2023-06-10T13:25:29;39.70;64.50
21090;DHT22;10703;51.020;6.128;2023-06-10T13:27:56;39.90;64.70
21090;DHT22;10703;51.020;6.128;2023-06-10T13:30:23;40.70;63.90
21090;DHT22;10703;51.020;6.128;2023-06-10T13:32:50;40.90;64.10
21090;DHT22;10703;51.020;6.128;2023-06-10T13:35:17;41.20;63.40
21090;DHT22;10703;51.020;6.128;2023-06-10T13:37:43;41.40;63.40
21090;DHT22;10703;51.020;6.128;2023-06-10T13:40:10;41.40;63.70
21090;DHT22;10703;51.020;6.128;2023-06-10T13:42:37;40.70;62.70
21090;DHT22;10703;51.020;6.128;2023-06-10T13:45:04;39.60;64.00
21090;DHT22;10703;51.020;6.128;2023-06-10T13:47:31;40.20;63.90
21090;DHT22;10703;51.020;6.128;2023-06-10T13:49:58;40.80;62.10
21090;DHT22;10703;51.020;6.128;2023-06-10T13:52:24;40.90;62.70
21090;DHT22;10703;51.020;6.128;2023-06-10T13:54:51;41.80;62.80
21090;DHT22;10703;51.020;6.128;2023-06-10T13:57:18;42.30;62.80
21090;DHT22;10703;51.020;6.128;2023-06-10T13:59:44;41.80;61.10
21090;DHT22;10703;51.020;6.128;2023-06-10T14:02:11;41.20;61.00
21090;DHT22;10703;51.020;6.128;2023-06-10T14:04:38;41.60;60.10
21090;DHT22;10703;51.020;6.128;2023-06-10T14:07:05;42.20;59.70
21090;DHT22;10703;51.020;6.128;2023-06-10T14:09:33;40.80;60.60
21090;DHT22;10703;51.020;6.128;2023-06-10T14:12:00;40.30;62.00
21090;DHT22;10703;51.020;6.128;2023-06-10T14:14:27;40.70;64.50
21090;DHT22;10703;51.020;6.128;2023-06-10T14:16:53;41.50;62.60
21090;DHT22;10703;51.020;6.128;2023-06-10T14:19:20;42.10;61.30
21090;DHT22;10703;51.020;6.128;2023-06-10T14:21:47;42.00;61.60
21090;DHT22;10703;51.020;6.128;2023-06-10T14:24:14;41.70;60.80
21090;DHT22;10703;51.020;6.128;2023-06-10T14:26:41;41.40;61.00
21090;DHT22;10703;51.020;6.128;2023-06-10T14:29:07;40.60;62.10
21090;DHT22;10703;51.020;6.128;2023-06-10T14:31:35;41.30;63.00
21090;DHT22;10703;51.020;6.128;2023-06-10T14:34:02;41.50;62.70
21090;DHT22;10703;51.020;6.128;2023-06-10T14:36:28;41.30;62.50
21090;DHT22;10703;51.020;6.128;2023-06-10T14:38:55;41.30;64.00
21090;DHT22;10703;51.020;6.128;2023-06-10T14:41:23;41.40;63.10
21090;DHT22;10703;51.020;6.128;2023-06-10T14:43:50;41.80;63.50
21090;DHT22;10703;51.020;6.128;2023-06-10T14:46:16;41.80;65.10
21090;DHT22;10703;51.020;6.128;2023-06-10T14:48:43;41.60;62.60
21090;DHT22;10703;51.020;6.128;2023-06-10T14:51:10;41.70;64.10
21090;DHT22;10703;51.020;6.128;2023-06-10T14:53:37;41.90;63.50
21090;DHT22;10703;51.020;6.128;2023-06-10T14:56:04;42.00;63.60
21090;DHT22;10703;51.020;6.128;2023-06-10T14:58:31;42.70;62.20
21090;DHT22;10703;51.020;6.128;2023-06-10T15:00:57;42.50;61.30
21090;DHT22;10703;51.020;6.128;2023-06-10T15:03:24;42.60;61.90
21090;DHT22;10703;51.020;6.128;2023-06-10T15:05:53;42.20;63.20
21090;DHT22;10703;51.020;6.128;2023-06-10T15:08:20;41.90;63.30
21090;DHT22;10703;51.020;6.128;2023-06-10T15:10:47;41.10;62.80
21090;DHT22;10703;51.020;6.128;2023-06-10T15:13:14;42.00;61.50
21090;DHT22;10703;51.020;6.128;2023-06-10T15:15:41;42.00;62.40
21090;DHT22;10703;51.020;6.128;2023-06-10T15:18:08;41.50;62.50
21090;DHT22;10703;51.020;6.128;2023-06-10T15:20:34;41.70;61.80
21090;DHT22;10703;51.020;6.128;2023-06-10T15:23:01;41.50;60.20
21090;DHT22;10703;51.020;6.128;2023-06-10T15:25:28;41.80;62.40
21090;DHT22;10703;51.020;6.128;2023-06-10T15:27:57;41.40;61.50
21090;DHT22;10703;51.020;6.128;2023-06-10T15:30:24;41.60;59.80
21090;DHT22;10703;51.020;6.128;2023-06-10T15:32:51;41.80;59.10
21090;DHT22;10703;51.020;6.128;2023-06-10T15:35:18;41.90;59.90
21090;DHT22;10703;51.020;6.128;2023-06-10T15:37:45;41.90;60.40
21090;DHT22;10703;51.020;6.128;2023-06-10T15:40:11;42.00;60.70
21090;DHT22;10703;51.020;6.128;2023-06-10T15:42:38;41.80;60.70
21090;DHT22;10703;51.020;6.128;2023-06-10T15:45:05;42.10;60.30
21090;DHT22;10703;51.020;6.128;2023-06-10T15:47:32;42.30;60.20
21090;DHT22;10703;51.020;6.128;2023-06-10T15:49:59;41.80;60.90
21090;DHT22;10703;51.020;6.128;2023-06-10T15:52:26;42.20;60.90
21090;DHT22;10703;51.020;6.128;2023-06-10T15:54:52;41.90;59.70